»·PEaware :: N153MS KRBL-KRNO

N153MS :: KRBL-KRNO

FLIGHT INFORMATION

Flight Status: Arrived
Operator: Privately registered:
United States
More flights under this callsign
Pilot: Shane N. (25833)
Aircraft: MOONEY M-20K/M ENCORE BRAVO
(M20T)
More flights by this aircraft type
Origin: KRBL Red Bluff Mun
United States
Destination: KRNO Reno/Tahoe Intl
United States
More flights between these airports :: More routes between these airports
Route: +RBL V332 MRGGO V200 FMG
File this flight plan on PilotEdge
Remarks:
Altitude:
(Current/Filed)
15,000ft
Speed:
(Current/Filed)
200kts
Departed: 18-Mar-20 10:39 AM
Arrived: 18-Mar-20 11:31 AM
Distance/Time
Traveled:
121nm/0:52
Distance/Time
To Go:
Arrived

Flight Plot

Page will automatically refresh every two minutes.

Flight plan parsing failed; only flown route is shown


Map Options




Map Legend


Flown Route
Filed Route
Departure Airport
Arrival Airport
Navaid (VOR, NDB)
Fix

Horizontal Profiles

Position Reports

Time Latitude Longitude Heading Altitude Ground
Speed
18-Mar-20 10:20 40.154803 -122.251047 79 342ft 0kts
18-Mar-20 10:21 40.154803 -122.251047 79 342ft 0kts
18-Mar-20 10:22 40.154803 -122.251047 79 342ft 0kts
18-Mar-20 10:23 40.154803 -122.251047 79 342ft 0kts
18-Mar-20 10:24 40.154803 -122.251047 79 342ft 0kts
18-Mar-20 10:25 40.154803 -122.251047 79 342ft 0kts
18-Mar-20 10:26 40.154803 -122.251047 79 342ft 0kts
18-Mar-20 10:27 40.154803 -122.251047 79 342ft 0kts
18-Mar-20 10:28 40.154803 -122.251047 79 342ft 0kts
18-Mar-20 10:29 40.154807 -122.251024 78 342ft 2kts
18-Mar-20 10:30 40.156720 -122.252122 349 341ft 13kts
18-Mar-20 10:31 40.157705 -122.253217 257 341ft 0kts
18-Mar-20 10:32 40.157705 -122.253217 257 341ft 0kts
18-Mar-20 10:33 40.157705 -122.253217 257 341ft 0kts
18-Mar-20 10:34 40.157705 -122.253217 257 341ft 0kts
18-Mar-20 10:35 40.157705 -122.253217 257 341ft 0kts
18-Mar-20 10:36 40.157705 -122.253217 257 341ft 0kts
18-Mar-20 10:37 40.157402 -122.254081 198 342ft 11kts
18-Mar-20 10:38 40.131595 -122.246250 162 932ft 134kts
18-Mar-20 10:39 40.100230 -122.231276 153 2773ft 121kts
18-Mar-20 10:40 40.070035 -122.209656 144 4427ft 126kts
18-Mar-20 10:41 40.041427 -122.181781 136 6057ft 131kts
18-Mar-20 10:42 40.014739 -122.147691 129 7679ft 136kts
18-Mar-20 10:43 39.990725 -122.108254 121 9274ft 141kts
18-Mar-20 10:44 39.957841 -122.078111 140 10856ft 147kts
18-Mar-20 10:45 39.925498 -122.043571 139 12425ft 152kts
18-Mar-20 10:46 39.892441 -122.007347 138 13967ft 157kts
18-Mar-20 10:47 39.858110 -121.969584 139 15010ft 188kts
18-Mar-20 10:48 39.812882 -121.920224 139 15009ft 224kts
18-Mar-20 10:49 39.763840 -121.866487 139 15008ft 231kts
18-Mar-20 10:50 39.714233 -121.812160 139 15008ft 233kts
18-Mar-20 10:51 39.664349 -121.757622 139 15009ft 233kts
18-Mar-20 10:52 39.614260 -121.702947 139 15009ft 233kts
18-Mar-20 10:53 39.582879 -121.631648 104 15009ft 231kts
18-Mar-20 10:54 39.564113 -121.551296 104 15010ft 232kts
18-Mar-20 10:55 39.545236 -121.470545 104 15010ft 232kts
18-Mar-20 10:57 39.526336 -121.389963 104 14999ft 232kts
18-Mar-20 10:58 39.507296 -121.309073 104 14971ft 232kts
18-Mar-20 10:59 39.488158 -121.228040 104 14947ft 232kts
18-Mar-20 11:00 39.469044 -121.147340 105 14935ft 233kts
18-Mar-20 11:01 39.449666 -121.065807 107 14935ft 236kts
18-Mar-20 11:02 39.430034 -120.983548 110 14936ft 238kts
18-Mar-20 11:03 39.410233 -120.900965 111 14936ft 237kts
18-Mar-20 11:04 39.390636 -120.819416 111 15055ft 235kts
18-Mar-20 11:05 39.370792 -120.737162 111 15056ft 237kts
18-Mar-20 11:06 39.351134 -120.654697 102 15053ft 239kts
18-Mar-20 11:07 39.360747 -120.569164 76 15056ft 239kts
18-Mar-20 11:08 39.376557 -120.484984 75 15057ft 238kts
18-Mar-20 11:09 39.392575 -120.400702 75 15039ft 239kts
18-Mar-20 11:10 39.408567 -120.316380 76 15013ft 239kts
18-Mar-20 11:11 39.424491 -120.231931 76 14991ft 239kts
18-Mar-20 11:12 39.449059 -120.154505 25 14991ft 231kts
18-Mar-20 11:13 39.506231 -120.115148 23 14990ft 231kts
18-Mar-20 11:14 39.563636 -120.075822 23 14977ft 230kts
18-Mar-20 11:15 39.620034 -120.037552 23 13479ft 224kts
18-Mar-20 11:16 39.675626 -120.000367 23 11965ft 222kts
18-Mar-20 11:16 39.722001 -119.970769 23 11001ft 213kts
18-Mar-20 11:18 39.784584 -119.933181 7 10992ft 208kts
18-Mar-20 11:18 39.833778 -119.924950 14 9963ft 216kts
18-Mar-20 11:19 39.847151 -119.862341 125 8934ft 160kts
18-Mar-20 11:21 39.826357 -119.803129 114 8592ft 158kts
18-Mar-20 11:21 39.802857 -119.769707 165 8446ft 160kts
18-Mar-20 11:23 39.748900 -119.766225 178 7860ft 166kts
18-Mar-20 11:24 39.702050 -119.766333 178 7359ft 167kts
18-Mar-20 11:24 39.663422 -119.767212 175 7191ft 161kts
18-Mar-20 11:25 39.620354 -119.766552 176 6595ft 135kts
18-Mar-20 11:26 39.585047 -119.766510 177 5895ft 127kts
18-Mar-20 11:27 39.553235 -119.766592 176 5257ft 98kts
18-Mar-20 11:28 39.528309 -119.766595 179 4763ft 86kts
18-Mar-20 11:29 39.506207 -119.766756 179 4417ft 44kts
18-Mar-20 11:30 39.501900 -119.765729 180 4417ft 8kts
18-Mar-20 11:31 39.501397 -119.764897 88 4417ft 4kts

Navigation Log

Ident Type
Flight plan parsing failed, navigation log unavailable